Airfield :
LOGIN :

Register | Disclaimer

   EN    FR    IT 

 










Legend :    VFR   Marginal VFR   IFR   Intensive IFR   Very Intensive IFR
Visi :
Ceiling :
>= 8 km
>= 3000ft
5 to 8 km
1000 to 3000 ft
1500m to 5 km
500 to 1000 ft
800 to 1500m
200 to 500 ft
< 800m
< 200 ft
Symbols :   Thunderstorms  Fog  Heavy snow  Heavy precipitations  Wind > 20 kt
SIGMETs :     Misc.  Thunderstorms  Icing  Turbulence  Mountain Waves  Volcanic Ashes







- Airport Elevation : 204 ft
- IATA code : AGF
- Download approach charts


LFBA - Agen

CURRENT METAR :
  • 241530Z AUTO 13004KT 090V170 CAVOK 25/14 Q1015 NOSIG

EXPIRED METARs :
  • 241500Z AUTO 10005KT 050V150 CAVOK 24/15 Q1015 NOSIG
  • 241400Z AUTO 13006KT 080V170 CAVOK 24/16 Q1016 TEMPO 4000 -SHRA SCT040TCU
  • 241330Z AUTO 10006KT 070V140 9999 FEW029 BKN088 BKN120 24/16 Q1016 TEMPO 4000 -SHRA SCT040TCU
  • 241300Z AUTO 12005KT 040V190 CAVOK 23/16 Q1016 TEMPO 4000 -SHRA SCT040TCU

TAF TAF LFBA
Valid from the 24 at 12:00 until the 24 at 21:00 UTC


241100Z 2412/2421 11005KT CAVOK
TEMPO 2414/2416 4000 -SHRA SCT040TCU
No reported NOTAMs for that airfield.



MET'MAP, your aeronautical weather chart ! - Copyright ORBIFLY December 2007 - Disclaimer

ORBIFLY MET'MAP TEAM :

Programming & Development : Alexandra Zaïnal
Concept & Development : Baudouin d'Aumeries
Co-Development & Prog : Marc-Olivier Méhu
Technical & hardware support : Manuel Goepfert

Contact : metmap@orbifly.com




SOURCES & CREDITS :

   NOAA